createdAt,value
2023-02-24T00:00:31.708Z,23.33
2023-02-24T00:02:59.643Z,21.70
2023-02-24T00:05:26.726Z,22.87
2023-02-24T00:07:53.754Z,23.38
2023-02-24T00:10:22.789Z,21.30
2023-02-24T00:12:49.796Z,24.00
2023-02-24T00:15:17.310Z,23.87
2023-02-24T00:17:45.404Z,22.10
2023-02-24T00:20:12.936Z,23.53
2023-02-24T00:22:41.427Z,20.93
2023-02-24T00:25:09.130Z,23.92
2023-02-24T00:27:36.227Z,21.13
2023-02-24T00:30:05.205Z,23.42
2023-02-24T00:32:32.647Z,22.25
2023-02-24T00:34:59.785Z,21.97
2023-02-24T00:37:26.845Z,21.75
2023-02-24T00:39:58.466Z,23.10
2023-02-24T00:42:25.604Z,23.38
2023-02-24T00:44:54.039Z,23.53
2023-02-24T00:47:22.370Z,23.42
2023-02-24T00:49:50.235Z,25.10
2023-02-24T00:52:18.728Z,24.00
2023-02-24T00:54:46.936Z,24.52
2023-02-24T00:57:14.286Z,24.60
2023-02-24T00:59:42.358Z,26.00
2023-02-24T01:02:11.332Z,25.17
2023-02-24T01:04:38.558Z,24.77
2023-02-24T01:07:10.492Z,22.45
2023-02-24T01:09:38.791Z,24.92
2023-02-24T01:12:26.712Z,23.20
2023-02-24T01:14:54.233Z,24.00
2023-02-24T01:17:21.979Z,24.90
2023-02-24T01:19:49.903Z,25.05
2023-02-24T01:22:17.883Z,24.20
2023-02-24T01:24:45.370Z,23.27
2023-02-24T01:27:13.254Z,25.40
2023-02-24T01:29:40.316Z,25.30
2023-02-24T01:32:12.968Z,27.83
2023-02-24T01:34:42.301Z,28.90
2023-02-24T01:37:09.606Z,27.30
2023-02-24T01:39:37.172Z,27.25
2023-02-24T01:42:06.141Z,28.27
2023-02-24T01:44:33.258Z,28.90
2023-02-24T01:47:04.073Z,27.30
2023-02-24T01:49:37.521Z,24.97
2023-02-24T01:52:11.206Z,25.90
2023-02-24T01:54:42.933Z,27.90
2023-02-24T01:57:11.059Z,27.70
2023-02-24T01:59:38.578Z,26.60
2023-02-24T02:02:07.498Z,27.75
2023-02-24T02:04:40.672Z,29.13
2023-02-24T02:07:10.579Z,25.67
2023-02-24T02:09:39.049Z,25.80
2023-02-24T02:12:06.086Z,25.52
2023-02-24T02:14:33.296Z,26.80
2023-02-24T02:17:15.239Z,26.17
2023-02-24T02:19:55.709Z,25.87
2023-02-24T02:22:41.759Z,26.57
2023-02-24T02:25:15.301Z,27.00
2023-02-24T02:28:04.875Z,26.83
2023-02-24T02:30:43.825Z,25.95
2023-02-24T02:33:30.309Z,23.37
2023-02-24T02:36:22.370Z,27.20
2023-02-24T02:38:57.514Z,22.00
2023-02-24T02:41:28.718Z,22.03
2023-02-24T02:44:11.809Z,23.23
2023-02-24T02:46:46.093Z,23.63
2023-02-24T02:49:20.028Z,23.42
2023-02-24T02:51:52.118Z,26.60
2023-02-24T02:54:27.144Z,25.57
2023-02-24T02:56:59.191Z,22.45
2023-02-24T02:59:27.197Z,24.57
2023-02-24T03:02:01.080Z,22.80
2023-02-24T03:04:29.883Z,23.73
2023-02-24T03:07:00.255Z,26.58
2023-02-24T03:09:29.779Z,27.55
2023-02-24T03:11:59.699Z,25.97
2023-02-24T03:14:29.183Z,28.20
2023-02-24T03:16:58.691Z,25.33
2023-02-24T03:19:28.693Z,27.70
2023-02-24T03:22:06.155Z,29.02
2023-02-24T03:24:36.445Z,28.88
2023-02-24T03:27:13.079Z,29.35
2023-02-24T03:30:00.937Z,28.00
2023-02-24T03:32:51.300Z,28.77
2023-02-24T03:35:21.564Z,30.38
2023-02-24T03:37:49.842Z,30.13
2023-02-24T03:40:17.940Z,27.75
2023-02-24T03:42:46.745Z,27.65
2023-02-24T03:45:16.134Z,27.58
2023-02-24T03:47:45.521Z,28.92
2023-02-24T03:50:14.545Z,29.60
2023-02-24T03:52:47.434Z,30.38
2023-02-24T03:55:21.644Z,29.45
2023-02-24T03:57:59.796Z,30.42
2023-02-24T04:00:34.349Z,27.10
2023-02-24T04:03:07.518Z,28.90
2023-02-24T04:05:37.632Z,27.63
2023-02-24T04:08:07.189Z,27.77
2023-02-24T04:10:52.299Z,28.17
2023-02-24T04:13:28.435Z,25.38
2023-02-24T04:16:00.192Z,27.08
2023-02-24T04:18:29.364Z,27.85
2023-02-24T04:20:59.673Z,26.38
2023-02-24T04:23:28.907Z,25.33
2023-02-24T04:25:56.330Z,25.40
2023-02-24T04:28:24.192Z,24.35
2023-02-24T04:30:53.263Z,22.15
2023-02-24T04:33:20.496Z,23.13
2023-02-24T04:35:50.437Z,22.02
2023-02-24T04:38:20.495Z,28.55
2023-02-24T04:40:49.702Z,23.90
2023-02-24T04:43:16.855Z,21.00
2023-02-24T04:45:44.190Z,22.85
2023-02-24T04:48:14.171Z,21.90
2023-02-24T04:50:42.982Z,25.20
2023-02-24T04:53:17.309Z,20.42
2023-02-24T04:55:48.665Z,22.15
2023-02-24T04:58:21.173Z,21.13
2023-02-24T05:00:52.418Z,23.08
2023-02-24T05:03:20.473Z,23.35
2023-02-24T05:05:56.879Z,22.52
2023-02-24T05:08:24.344Z,23.80
2023-02-24T05:10:51.897Z,23.70
2023-02-24T05:13:27.358Z,24.77
2023-02-24T05:16:00.078Z,23.10
2023-02-24T05:18:30.057Z,24.52
2023-02-24T05:21:15.926Z,25.60
2023-02-24T05:23:44.562Z,27.65
2023-02-24T05:26:15.947Z,27.05
2023-02-24T05:28:44.066Z,27.38
2023-02-24T05:31:15.344Z,27.20
2023-02-24T05:33:43.289Z,24.35
2023-02-24T05:36:12.163Z,24.63
2023-02-24T05:38:39.472Z,28.48
2023-02-24T05:41:11.893Z,25.73
2023-02-24T05:43:39.090Z,25.60
2023-02-24T05:46:07.027Z,28.13
2023-02-24T05:48:37.886Z,23.92
2023-02-24T05:51:08.122Z,23.23
2023-02-24T05:53:36.203Z,22.63
2023-02-24T05:56:05.682Z,23.02
2023-02-24T05:58:32.761Z,20.55
2023-02-24T06:01:06.747Z,19.20
2023-02-24T06:03:35.548Z,18.20
2023-02-24T06:06:08.956Z,18.85
2023-02-24T06:08:56.372Z,19.40
2023-02-24T06:11:23.914Z,19.63
2023-02-24T06:13:52.134Z,19.23
2023-02-24T06:16:20.367Z,19.83
2023-02-24T06:18:50.005Z,20.42
2023-02-24T06:21:17.178Z,18.85
2023-02-24T06:23:45.073Z,20.77
2023-02-24T06:26:19.192Z,21.30
2023-02-24T06:28:47.952Z,18.92
2023-02-24T06:31:15.299Z,19.83
2023-02-24T06:33:42.737Z,21.05
2023-02-24T06:36:09.813Z,20.33
2023-02-24T06:38:37.615Z,18.55
2023-02-24T06:41:10.690Z,19.10
2023-02-24T06:43:38.935Z,21.92
2023-02-24T06:46:06.864Z,20.08
2023-02-24T06:48:34.627Z,20.42
2023-02-24T06:51:06.188Z,20.15
2023-02-24T06:53:35.841Z,19.88
2023-02-24T06:56:14.752Z,18.25
2023-02-24T06:58:43.786Z,18.60
2023-02-24T07:01:14.584Z,18.45
2023-02-24T07:04:03.448Z,16.50
2023-02-24T07:06:34.272Z,16.08
2023-02-24T07:09:08.509Z,18.80
2023-02-24T07:11:36.337Z,17.35
2023-02-24T07:14:05.585Z,18.77
2023-02-24T07:16:34.604Z,16.35
2023-02-24T07:19:02.951Z,15.38
2023-02-24T07:21:35.479Z,14.68
2023-02-24T07:24:04.029Z,13.27
2023-02-24T07:26:31.047Z,13.68
2023-02-24T07:28:58.397Z,12.52
2023-02-24T07:31:26.294Z,12.18
2023-02-24T07:33:55.668Z,11.00
2023-02-24T07:36:29.811Z,11.40
2023-02-24T07:38:58.315Z,9.77
2023-02-24T07:41:26.443Z,10.27
2023-02-24T07:43:54.510Z,10.45
2023-02-24T07:46:24.551Z,9.65
2023-02-24T07:48:55.872Z,11.63
2023-02-24T07:51:26.791Z,8.95
2023-02-24T07:54:01.242Z,9.57
2023-02-24T07:56:30.828Z,10.65
2023-02-24T07:59:02.002Z,9.25
2023-02-24T08:01:30.036Z,8.70
2023-02-24T08:04:01.011Z,10.85
2023-02-24T08:06:38.439Z,8.30
2023-02-24T08:09:31.637Z,9.77
2023-02-24T08:11:58.660Z,7.73
2023-02-24T08:14:44.327Z,7.20
2023-02-24T08:17:12.278Z,7.90
2023-02-24T08:19:40.385Z,8.20
2023-02-24T08:22:20.847Z,8.88
2023-02-24T08:24:50.133Z,7.90
2023-02-24T08:27:21.009Z,8.20
2023-02-24T08:29:59.932Z,9.23
2023-02-24T08:32:37.868Z,8.03
2023-02-24T08:35:14.425Z,8.90
2023-02-24T08:37:46.973Z,9.55
2023-02-24T08:40:31.390Z,9.80
2023-02-24T08:43:35.970Z,10.02
2023-02-24T08:46:05.988Z,11.02
2023-02-24T08:48:42.318Z,10.07
2023-02-24T08:51:15.902Z,8.50
2023-02-24T08:53:43.570Z,8.52
2023-02-24T08:56:12.402Z,10.80
2023-02-24T08:58:41.012Z,9.75
2023-02-24T09:01:20.198Z,11.40
2023-02-24T09:03:48.044Z,10.90
2023-02-24T09:06:27.297Z,11.68
2023-02-24T09:09:16.376Z,9.30
2023-02-24T09:11:44.823Z,10.90
2023-02-24T09:14:25.845Z,8.97
2023-02-24T09:17:03.922Z,9.98
2023-02-24T09:19:47.156Z,9.80
2023-02-24T09:22:53.667Z,9.13
2023-02-24T09:25:25.694Z,9.13
2023-02-24T09:28:07.763Z,8.57
2023-02-24T09:30:36.745Z,7.67
2023-02-24T09:33:18.060Z,8.48
2023-02-24T09:35:46.775Z,7.40
2023-02-24T09:38:16.685Z,7.25
2023-02-24T09:40:52.010Z,6.67
2023-02-24T09:43:24.309Z,6.88
2023-02-24T09:45:54.287Z,5.78
2023-02-24T09:48:32.719Z,8.82
2023-02-24T09:51:05.516Z,6.50
2023-02-24T09:53:41.288Z,6.53
2023-02-24T09:56:16.036Z,10.07
2023-02-24T09:58:47.812Z,6.18
2023-02-24T10:01:21.636Z,5.75
2023-02-24T10:04:11.651Z,6.97
2023-02-24T10:06:48.500Z,5.90
2023-02-24T10:09:24.728Z,6.75
2023-02-24T10:11:53.935Z,7.17
2023-02-24T10:14:27.422Z,5.30
2023-02-24T10:17:16.396Z,6.15
2023-02-24T10:19:43.503Z,6.72
2023-02-24T10:22:27.539Z,5.40
2023-02-24T10:25:24.338Z,6.78
2023-02-24T10:27:53.060Z,6.93
2023-02-24T10:30:40.725Z,4.80
2023-02-24T10:33:25.305Z,5.20
2023-02-24T10:35:54.367Z,5.15
2023-02-24T10:38:22.479Z,5.15
2023-02-24T10:40:56.666Z,5.20
2023-02-24T10:43:30.236Z,4.40
2023-02-24T10:46:17.028Z,5.23
2023-02-24T10:48:51.299Z,5.32
2023-02-24T10:51:20.217Z,6.38
2023-02-24T10:54:09.707Z,5.10
2023-02-24T10:56:55.413Z,5.15
2023-02-24T10:59:25.571Z,4.80
2023-02-24T11:02:01.055Z,5.20
2023-02-24T11:04:53.730Z,4.97
2023-02-24T11:07:47.372Z,5.05
2023-02-24T11:10:25.765Z,3.83
2023-02-24T11:13:13.651Z,8.88
2023-02-24T11:16:02.509Z,5.00
2023-02-24T11:18:30.700Z,3.97
2023-02-24T11:21:05.717Z,4.75
2023-02-24T11:23:38.891Z,3.85
2023-02-24T11:26:11.832Z,3.60
2023-02-24T11:28:53.838Z,4.13
2023-02-24T11:31:40.012Z,4.30
2023-02-24T11:34:15.293Z,4.57
2023-02-24T11:37:02.718Z,5.87
2023-02-24T11:39:38.727Z,4.33
2023-02-24T11:42:10.785Z,5.23
2023-02-24T11:44:46.764Z,4.03
2023-02-24T11:47:15.698Z,4.30
2023-02-24T11:50:05.256Z,4.70
2023-02-24T11:52:34.466Z,3.80
2023-02-24T11:55:03.838Z,5.60
2023-02-24T11:57:39.463Z,5.40
2023-02-24T12:00:13.508Z,4.77
2023-02-24T12:02:51.080Z,5.03
2023-02-24T12:05:21.580Z,4.13
2023-02-24T12:07:57.428Z,4.60
2023-02-24T12:10:26.243Z,4.27
2023-02-24T12:13:00.358Z,4.03
2023-02-24T12:15:30.653Z,4.10
2023-02-24T12:18:05.067Z,4.47
2023-02-24T12:20:40.425Z,3.73
2023-02-24T12:23:15.628Z,4.47
2023-02-24T12:25:50.047Z,4.43
2023-02-24T12:28:34.024Z,3.77
2023-02-24T12:31:08.781Z,3.80
2023-02-24T12:33:40.488Z,5.90
2023-02-24T12:36:07.484Z,5.10
2023-02-24T12:38:48.697Z,4.07
2023-02-24T12:41:26.260Z,5.50
2023-02-24T12:44:03.359Z,4.45
2023-02-24T12:46:33.486Z,4.30
2023-02-24T12:49:18.762Z,4.00
2023-02-24T12:52:15.738Z,4.20
2023-02-24T12:54:48.990Z,4.78
2023-02-24T12:57:22.814Z,4.40
2023-02-24T12:59:50.664Z,5.13
2023-02-24T13:02:32.620Z,5.00
2023-02-24T13:05:05.557Z,4.88
2023-02-24T13:07:32.648Z,4.47
2023-02-24T13:10:15.072Z,3.50
2023-02-24T13:12:48.099Z,3.70
2023-02-24T13:15:21.064Z,3.67
2023-02-24T13:17:51.009Z,3.40
2023-02-24T13:20:37.603Z,3.05
2023-02-24T13:23:17.827Z,3.40
2023-02-24T13:25:51.075Z,3.70
2023-02-24T13:28:21.207Z,3.55
2023-02-24T13:30:57.572Z,3.45
2023-02-24T13:33:26.103Z,4.25
2023-02-24T13:36:05.628Z,4.43
2023-02-24T13:38:32.623Z,4.10
2023-02-24T13:41:18.951Z,4.53
2023-02-24T13:44:02.942Z,4.47
2023-02-24T13:47:02.498Z,4.72
2023-02-24T13:49:29.474Z,4.25
2023-02-24T13:51:59.486Z,3.95
2023-02-24T13:54:44.366Z,4.55
2023-02-24T13:57:26.809Z,4.32
2023-02-24T14:00:01.608Z,4.82
2023-02-24T14:02:29.915Z,5.80
2023-02-24T14:04:58.785Z,4.63
2023-02-24T14:07:27.956Z,5.13
2023-02-24T14:10:05.155Z,4.15
2023-02-24T14:12:35.597Z,4.32
2023-02-24T14:15:03.506Z,4.28
2023-02-24T14:17:32.299Z,4.88
2023-02-24T14:20:15.764Z,4.20
2023-02-24T14:22:46.966Z,4.57
2023-02-24T14:25:15.631Z,5.13
2023-02-24T14:27:47.684Z,4.60
2023-02-24T14:30:30.735Z,5.57
2023-02-24T14:32:57.963Z,5.20
2023-02-24T14:35:28.818Z,4.65
2023-02-24T14:37:57.557Z,5.25
2023-02-24T14:40:25.648Z,5.72
2023-02-24T14:42:54.500Z,5.20
2023-02-24T14:45:25.310Z,5.15
2023-02-24T14:47:56.124Z,5.25
2023-02-24T14:50:26.359Z,5.22
2023-02-24T14:52:55.978Z,5.18
2023-02-24T14:55:24.674Z,4.82
2023-02-24T14:58:15.201Z,5.68
2023-02-24T15:00:46.536Z,6.95
2023-02-24T15:03:22.108Z,6.40
2023-02-24T15:05:51.147Z,6.13
2023-02-24T15:08:37.009Z,7.05
2023-02-24T15:11:10.757Z,6.65
2023-02-24T15:13:42.992Z,6.85
2023-02-24T15:16:15.024Z,5.70
2023-02-24T15:18:42.357Z,5.30
2023-02-24T15:21:19.053Z,6.07
2023-02-24T15:23:47.581Z,4.95
2023-02-24T15:26:25.605Z,6.30
2023-02-24T15:28:58.176Z,5.78
2023-02-24T15:31:26.071Z,5.78
2023-02-24T15:33:58.309Z,5.75
2023-02-24T15:36:26.345Z,6.15
2023-02-24T15:38:55.034Z,6.45
2023-02-24T15:41:23.315Z,6.32
2023-02-24T15:43:52.999Z,6.35
2023-02-24T15:46:20.545Z,7.07
2023-02-24T15:48:51.733Z,6.80
2023-02-24T15:51:22.168Z,5.55
2023-02-24T15:53:49.311Z,7.70
2023-02-24T15:56:17.508Z,6.53
2023-02-24T15:58:44.743Z,6.43
2023-02-24T16:01:12.609Z,7.97
2023-02-24T16:03:40.111Z,6.63
2023-02-24T16:06:07.822Z,6.43
2023-02-24T16:08:44.619Z,6.53
2023-02-24T16:11:12.181Z,7.13
2023-02-24T16:13:39.382Z,7.72
2023-02-24T16:16:07.349Z,7.05
2023-02-24T16:18:34.507Z,7.82
2023-02-24T16:21:02.460Z,6.80
2023-02-24T16:23:29.672Z,7.35
2023-02-24T16:25:58.420Z,7.10
2023-02-24T16:28:27.046Z,7.63
2023-02-24T16:30:54.269Z,6.88
2023-02-24T16:33:23.708Z,8.75
2023-02-24T16:35:53.454Z,12.30
2023-02-24T16:38:21.421Z,8.77
2023-02-24T16:40:49.781Z,10.52
2023-02-24T16:43:17.203Z,6.90
2023-02-24T16:45:44.971Z,7.22
2023-02-24T16:48:19.472Z,7.35
2023-02-24T16:50:46.566Z,6.97
2023-02-24T16:53:18.586Z,8.60
2023-02-24T16:55:46.228Z,8.23
2023-02-24T16:58:13.980Z,7.65
2023-02-24T17:00:42.205Z,16.55
2023-02-24T17:03:19.619Z,7.95
2023-02-24T17:05:46.986Z,19.52
2023-02-24T17:08:14.698Z,11.18
2023-02-24T17:10:42.819Z,8.55
2023-02-24T17:13:14.129Z,8.00
2023-02-24T17:15:41.444Z,9.23
2023-02-24T17:18:08.624Z,10.50
2023-02-24T17:20:36.477Z,9.45
2023-02-24T17:23:03.585Z,9.50
2023-02-24T17:25:31.458Z,10.70
2023-02-24T17:27:58.797Z,9.75
2023-02-24T17:30:28.034Z,10.50
2023-02-24T17:32:55.395Z,8.88
2023-02-24T17:35:23.007Z,8.77
2023-02-24T17:37:50.257Z,8.10
2023-02-24T17:40:17.418Z,7.60
2023-02-24T17:42:44.623Z,8.07
2023-02-24T17:45:11.835Z,8.55
2023-02-24T17:47:38.946Z,8.07
2023-02-24T17:50:06.770Z,8.88
2023-02-24T17:52:34.133Z,7.72
2023-02-24T17:55:01.202Z,8.65
2023-02-24T17:57:29.627Z,8.88
2023-02-24T17:59:56.814Z,9.63
2023-02-24T18:02:24.294Z,8.48
2023-02-24T18:04:51.753Z,9.60
2023-02-24T18:07:18.919Z,8.70
2023-02-24T18:09:46.047Z,9.05
2023-02-24T18:12:13.258Z,9.68
2023-02-24T18:14:40.599Z,10.00
2023-02-24T18:17:07.739Z,10.00
2023-02-24T18:19:34.864Z,10.80
2023-02-24T18:22:01.902Z,9.95
2023-02-24T18:24:29.099Z,10.02
2023-02-24T18:26:56.278Z,12.07
2023-02-24T18:29:23.380Z,10.40
2023-02-24T18:31:50.759Z,11.18
2023-02-24T18:34:17.938Z,11.68
2023-02-24T18:36:46.074Z,11.25
2023-02-24T18:39:14.586Z,12.15
2023-02-24T18:41:41.893Z,11.07
2023-02-24T18:44:09.447Z,12.57
2023-02-24T18:46:37.717Z,12.32
2023-02-24T18:49:06.608Z,10.95
2023-02-24T18:51:33.932Z,11.48
2023-02-24T18:54:01.658Z,13.02
2023-02-24T18:56:29.788Z,11.80
2023-02-24T18:58:58.017Z,12.88
2023-02-24T19:01:30.267Z,13.73
2023-02-24T19:03:57.835Z,13.77
2023-02-24T19:06:26.973Z,12.95
2023-02-24T19:09:01.992Z,12.70
2023-02-24T19:11:29.449Z,11.32
2023-02-24T19:13:56.698Z,9.82
2023-02-24T19:16:24.218Z,10.30
2023-02-24T19:18:53.176Z,9.48
2023-02-24T19:21:20.736Z,9.18
2023-02-24T19:23:47.875Z,9.30
2023-02-24T19:26:19.492Z,8.40
2023-02-24T19:28:46.579Z,7.88
2023-02-24T19:31:19.064Z,8.10
2023-02-24T19:33:46.206Z,8.43
2023-02-24T19:36:13.246Z,9.15
2023-02-24T19:38:42.094Z,10.75
2023-02-24T19:41:09.291Z,12.15
2023-02-24T19:43:36.437Z,13.63
2023-02-24T19:46:06.934Z,14.98
2023-02-24T19:48:34.329Z,15.68
2023-02-24T19:51:07.957Z,15.57
2023-02-24T19:53:35.024Z,15.93
2023-02-24T19:56:02.405Z,16.75
2023-02-24T19:58:29.556Z,17.15
2023-02-24T20:00:57.068Z,16.98
2023-02-24T20:03:28.212Z,15.48
2023-02-24T20:05:55.551Z,16.10
2023-02-24T20:08:22.575Z,13.52
2023-02-24T20:10:58.532Z,14.32
2023-02-24T20:13:25.590Z,12.80
2023-02-24T20:15:52.654Z,13.98
2023-02-24T20:18:19.820Z,11.55
2023-02-24T20:20:48.845Z,9.73
2023-02-24T20:23:16.078Z,7.85
2023-02-24T20:25:50.570Z,7.50
2023-02-24T20:28:19.619Z,6.05
2023-02-24T20:30:46.713Z,6.50
2023-02-24T20:33:13.761Z,6.90
2023-02-24T20:35:41.089Z,5.80
2023-02-24T20:38:08.204Z,6.15
2023-02-24T20:40:36.692Z,7.03
2023-02-24T20:43:04.803Z,8.10
2023-02-24T20:45:32.724Z,6.60
2023-02-24T20:47:59.782Z,7.00
2023-02-24T20:50:27.074Z,6.40
2023-02-24T20:52:54.325Z,6.68
2023-02-24T20:55:22.296Z,5.72
2023-02-24T20:57:50.002Z,7.13
2023-02-24T21:00:17.429Z,6.45
2023-02-24T21:02:44.671Z,7.07
2023-02-24T21:05:18.985Z,7.70
2023-02-24T21:07:46.081Z,7.28
2023-02-24T21:10:14.207Z,7.88
2023-02-24T21:12:41.633Z,8.70
2023-02-24T21:15:12.139Z,8.95
2023-02-24T21:17:39.692Z,9.15
2023-02-24T21:20:07.589Z,8.68
2023-02-24T21:22:34.615Z,8.80
2023-02-24T21:25:01.747Z,8.77
2023-02-24T21:27:28.980Z,8.25
2023-02-24T21:29:56.262Z,9.50
2023-02-24T21:32:23.815Z,8.38
2023-02-24T21:34:51.019Z,8.38
2023-02-24T21:37:18.685Z,10.32
2023-02-24T21:39:45.828Z,10.13
2023-02-24T21:42:13.051Z,11.10
2023-02-24T21:44:44.160Z,10.45
2023-02-24T21:47:11.650Z,10.75
2023-02-24T21:49:38.769Z,10.38
2023-02-24T21:52:05.909Z,9.55
2023-02-24T21:54:33.785Z,8.57
2023-02-24T21:57:00.871Z,8.30
2023-02-24T21:59:28.012Z,8.07
2023-02-24T22:01:55.028Z,8.23
2023-02-24T22:04:23.223Z,8.55
2023-02-24T22:06:50.276Z,8.60
2023-02-24T22:09:19.340Z,8.25
2023-02-24T22:11:47.351Z,8.80
2023-02-24T22:14:16.090Z,7.53
2023-02-24T22:16:43.318Z,6.70
2023-02-24T22:19:10.754Z,6.60
2023-02-24T22:21:41.612Z,6.97
2023-02-24T22:24:11.459Z,7.38
2023-02-24T22:26:38.570Z,6.07
2023-02-24T22:29:05.587Z,7.60
2023-02-24T22:31:33.534Z,6.55
2023-02-24T22:34:01.216Z,7.70
2023-02-24T22:36:30.805Z,7.40
2023-02-24T22:38:58.839Z,7.53
2023-02-24T22:41:28.123Z,7.30
2023-02-24T22:43:55.214Z,8.80
2023-02-24T22:46:24.207Z,8.70
2023-02-24T22:48:51.484Z,8.85
2023-02-24T22:51:19.084Z,8.23
2023-02-24T22:53:47.309Z,8.88
2023-02-24T22:56:15.158Z,8.98
2023-02-24T22:58:43.473Z,8.88
2023-02-24T23:01:11.774Z,8.45
2023-02-24T23:03:40.079Z,10.20
2023-02-24T23:06:14.955Z,9.13
2023-02-24T23:08:43.110Z,8.52
2023-02-24T23:11:14.707Z,8.35
2023-02-24T23:13:42.748Z,6.88
2023-02-24T23:16:11.231Z,7.28
2023-02-24T23:18:38.412Z,6.95
2023-02-24T23:21:06.861Z,6.25
2023-02-24T23:23:34.184Z,5.20
2023-02-24T23:26:01.189Z,5.40
2023-02-24T23:28:28.867Z,5.90
2023-02-24T23:30:56.335Z,5.70
2023-02-24T23:33:23.398Z,5.45
2023-02-24T23:35:50.700Z,5.68
2023-02-24T23:38:18.049Z,6.13
2023-02-24T23:40:50.599Z,6.72
2023-02-24T23:43:18.188Z,6.63
2023-02-24T23:45:45.338Z,7.28
2023-02-24T23:48:13.922Z,7.32
2023-02-24T23:50:41.862Z,5.47
2023-02-24T23:53:09.528Z,7.50
2023-02-24T23:55:39.092Z,5.63
2023-02-24T23:58:06.164Z,6.50
